Metar Cercanos

 

LEPA - Palma De Mallorc, Spain
Distance from station: ONO 38km
Actualización: Sat, 24-Oct-2020 8:30pm CEST
Few Clouds
Few Clouds
 Viento del OSO
Viento: OSO 15 km/h
Temperatura: 19°C
Rocío: 13°C
Humedad: 68%
Barómetro: 1021 hPa
Clouds: Few Clouds
Visibility: 10 km
Cloud details: Few Clouds 914 m
2020/10/24 18:30 LEPA 241830Z 24008KT 9999 FEW030 19/13 Q1021 NOSIG
LEMH - Mahon/Menorca Is, Spain
Distance from station: ENE 105km
Actualización: Sat, 24-Oct-2020 8:30pm CEST
Despejado
Despejado
 Viento del ONO
Viento: ONO 7 km/h
Temperatura: 16°C
Rocío: 11°C
Humedad: 72%
Barómetro: 1021 hPa
Resumen: Despejado
Visibility: greater than 10 km
2020/10/24 18:30 LEMH 241830Z 29004KT CAVOK 16/11 Q1021
 
LEIB - Ibiza/Es Codola, Spain
Distance from station: OSO 165km
Actualización: Sat, 24-Oct-2020 8:30pm CEST
Few Clouds
Few Clouds
 Viento del OSO
Viento: OSO 24 km/h
Temperatura: 20°C
Rocío: 13°C
Humedad: 64%
Barómetro: 1021 hPa
Clouds: Few Clouds
Visibility: 10 km
Cloud details: Few Clouds 1036 m
2020/10/24 18:30 LEIB 241830Z 24013KT 9999 FEW034 20/13 Q1021 NOSIG
LEBL - Barcelona Airpor, Spain
Distance from station: NNO 225km
Actualización: Sat, 24-Oct-2020 8:30pm CEST
Despejado
Despejado
 Viento del OSO
Viento: OSO 22 km/h
Temperatura: 17°C
Rocío: 11°C
Humedad: 68%
Barómetro: 1019 hPa
Resumen: Despejado
Visibility: greater than 10 km
2020/10/24 18:30 LEBL 241830Z 25012KT CAVOK 17/11 Q1019 NOSIG
 
LEVC - Valencia (civ/Mi, Spain
Distance from station: NO 188km
Actualización: Sat, 24-Oct-2020 8:30pm CEST
Despejado
Despejado
 Viento del OSO
Viento: OSO 19 km/h
Temperatura: 20°C
Rocío: 8°C
Humedad: 46%
Barómetro: 1020 hPa
Resumen: Despejado
Visibility: greater than 10 km
2020/10/24 18:30 LEVC 241830Z 25010KT CAVOK 20/08 Q1020 NOSIG
LEGE - Gerona/Costa Bra, Spain
Distance from station: N 276km
Actualización: Sat, 24-Oct-2020 8:30pm CEST
Despejado
Despejado
 Viento del SSO
Viento: SSO 7 km/h
Temperatura: 14°C
Rocío: 10°C
Humedad: 77%
Barómetro: 1018 hPa
Resumen: Despejado
Visibility: greater than 10 km
2020/10/24 18:30 LEGE 241830Z 21004KT CAVOK 14/10 Q1018
 
LEAL - Alicante/El Alte, Spain
Distance from station: OSO 344km
Actualización: Sat, 24-Oct-2020 8:30pm CEST
Despejado
Despejado
 Viento del OSO
Viento: OSO 7 km/h
Temperatura: 18°C
Rocío: 14°C
Humedad: 78%
Barómetro: 1022 hPa
Resumen: Despejado
Visibility: greater than 10 km
2020/10/24 18:30 LEAL 241830Z 25004KT CAVOK 18/14 Q1022 NOSIG
LEAM - Almeria Airport, Spain
Distance from station: SSO 56km
Actualización: Sat, 24-Oct-2020 8:30pm CEST
Despejado
Despejado
 Viento del SO
Viento: SO 15 km/h
Temperatura: 18°C
Rocío: 15°C
Humedad: 83%
Barómetro: 1023 hPa
Resumen: Despejado
Visibility: greater than 10 km
2020/10/24 18:30 LEAM 241830Z 23008KT 200V260 CAVOK 18/15 Q1023
 
LEZG - Zaragoza (mil/Ci, Spain
Distance from station: NO 431km
Actualización: Sat, 24-Oct-2020 8:30pm CEST
Despejado
Despejado
 Viento del OSO
Viento: OSO 15 km/h
Temperatura: 18°C
Rocío: 7°C
Humedad: 49%
Barómetro: 1020 hPa
Resumen: Despejado
Visibility: greater than 10 km
2020/10/24 18:30 LEZG 241830Z 25008KT CAVOK 18/07 Q1020
LEMD - Madrid/Barajas, Spain
Distance from station: ONO 234km
Actualización: Sat, 24-Oct-2020 8:30pm CEST
Despejado
Despejado
 Viento del SSO
Viento: SSO 6 km/h
Temperatura: 12°C
Rocío: 7°C
Humedad: 72%
Barómetro: 1023 hPa
Resumen: Despejado
Visibility: greater than 10 km
2020/10/24 18:30 LEMD 241830Z 20003KT 140V240 CAVOK 12/07 Q1023 NOSIG
 
LEGR - Granada Airport, Spain
Distance from station: OSO 62km
Actualización: Sat, 24-Oct-2020 8:30pm CEST
Few Clouds
Few Clouds
 Viento del O
Viento: O 6 km/h
Temperatura: 14°C
Rocío: 9°C
Humedad: 72%
Barómetro: 1025 hPa
Clouds: Few Clouds
Visibility: 10 km
Cloud details: Few Clouds 1219 m
2020/10/24 18:30 LEGR 241830Z 27003KT 9999 FEW040 14/09 Q1025
LEMG - Malaga (civ/Mil), Spain
Distance from station: OSO 227km
Actualización: Sat, 24-Oct-2020 8:30pm CEST
Few Clouds
Few Clouds
 Viento del O
Viento: O 7 km/h
Temperatura: 20°C
Rocío: 12°C
Humedad: 60%
Barómetro: 1023 hPa
Clouds: Few Clouds
Visibility: 10 km
Cloud details: Few Clouds 1524 m
2020/10/24 18:30 LEMG 241830Z 27004KT 240V300 9999 FEW050 20/12 Q1023 NOSIG
 
LEZL - Sevilla (civ/Mil, Spain
Distance from station: S 318km
Actualización: Sat, 24-Oct-2020 8:30pm CEST
Few Clouds
Few Clouds
 Viento del SO
Viento: SO 6 km/h
Temperatura: 19°C
Rocío: 12°C
Humedad: 64%
Barómetro: 1024 hPa
Clouds: Few Clouds
Visibility: 10 km
Cloud details: Few Clouds 914 m
2020/10/24 18:30 LEZL 241830Z 22003KT 9999 FEW030 19/12 Q1024 NOSIG
LEVT - Vitoria, Spain
Distance from station: NO 226km
Actualización: Sat, 24-Oct-2020 8:30pm CEST
Cubierto
Cubierto
 Viento del SSO
Viento: SSO 20 km/h
Temperatura: 14°C
Rocío: 8°C
Humedad: 67%
Barómetro: 1019 hPa
Clouds: Cubierto
Visibility: 10 km
Cloud details: Cubierto 1036 m
2020/10/24 18:30 LEVT 241830Z 21011KT 180V260 9999 OVC034 14/08 Q1019
 
LEBB - Bilbao/Sondica, Spain
Distance from station: NNO 235km
Actualización: Sat, 24-Oct-2020 8:30pm CEST
Few Clouds
Few Clouds
 Viento del SSO
Viento: SSO 17 km/h, Racha: 35 km/h
Temperatura: 19°C
Rocío: 9°C
Humedad: 52%
Barómetro: 1016 hPa
Clouds: Few Clouds
Visibility: 10 km
Cloud details: Few Clouds 1067 m
2020/10/24 18:30 LEBB 241830Z 20009G19KT 110V270 9999 FEW035 19/09 Q1016 NOSIG
LESO - San Sebastian/Fu, Spain
Distance from station: N 231km
Actualización: Sat, 24-Oct-2020 8:30pm CEST
Despejado
Despejado
 Viento del SO
Viento: SO 11 km/h
Temperatura: 18°C
Rocío: 9°C
Humedad: 56%
Barómetro: 1016 hPa
Resumen: Despejado
Visibility: greater than 10 km
2020/10/24 18:30 LESO 241830Z 22006KT 170V260 CAVOK 18/09 Q1016
 
LEVD - Valladolid(Mil/C, Spain
Distance from station: ONO 239km
Actualización: Sat, 24-Oct-2020 8:30pm CEST
Cubierto
Cubierto
 Viento del SO
Viento: SO 17 km/h
Temperatura: 12°C
Rocío: 8°C
Humedad: 77%
Barómetro: 1022 hPa
Clouds: Cubierto
Visibility: 10 km
Cloud details: Muy nuboso 914 m
Cubierto 1128 m
2020/10/24 18:30 LEVD 241830Z 22009KT 9999 BKN030 OVC037 12/08 Q1022
LESA - Salamanca (civ/M, Spain
Distance from station: ONO 349km
Actualización: Sat, 24-Oct-2020 8:30pm CEST
Cubierto
Cubierto
 Viento del SO
Viento: SO 22 km/h
Temperatura: 11°C
Rocío: 7°C
Humedad: 77%
Barómetro: 1023 hPa
Clouds: Cubierto
Visibility: 10 km
Cloud details: Cubierto 1006 m
2020/10/24 18:30 LESA 241830Z AUTO 22012KT 9999 OVC033 11/07 Q1023
 
LEXJ - Santander/Paraya, Spain
Distance from station: NNO 247km
Actualización: Sat, 24-Oct-2020 8:30pm CEST
Despejado
Despejado
 Viento del SO
Viento: SO 30 km/h, Racha: 56 km/h
Temperatura: 19°C
Rocío: 9°C
Humedad: 52%
Barómetro: 1013 hPa
Resumen: Despejado
Visibility: greater than 10 km
2020/10/24 18:30 LEXJ 241830Z 22016G30KT 170V250 CAVOK 19/09 Q1013
LEAS - Asturias/Aviles, Spain
Distance from station: NO 214km
Actualización: Sat, 24-Oct-2020 8:30pm CEST
Few Clouds
Few Clouds
 Viento del OSO
Viento: OSO 15 km/h, Racha: 33 km/h
Temperatura: 20°C
Rocío: 8°C
Humedad: 46%
Barómetro: 1011 hPa
Clouds: Few Clouds
Visibility: 10 km
Cloud details: Few Clouds 2134 m
2020/10/24 18:30 LEAS 241830Z 24008G18KT 200V300 9999 FEW070 20/08 Q1011 NOSIG
 
LECO - La Coruna/Alvedr, Spain
Distance from station: ONO 222km
Actualización: Sat, 24-Oct-2020 8:30pm CEST
Parcialmente nuboso
Parcialmente nuboso
 Viento del SSO
Viento: SSO 26 km/h, Racha: 50 km/h
Temperatura: 16°C
Rocío: 14°C
Humedad: 88%
Barómetro: 1011 hPa
Clouds: Parcialmente nuboso
Visibility: 10 km
Cloud details: Parcialmente nuboso 914 m
Parcialmente nuboso 1219 m
2020/10/24 18:30 LECO 241830Z 20014G27KT 150V240 9999 SCT030 SCT040 16/14 Q1011 TEMPO RA
LEVX - Vigo/Peinador, Spain
Distance from station: O 214km
Actualización: Sat, 24-Oct-2020 8:30pm CEST
Lluvia débil, Patches of, Niebla, Muy nuboso
Lluvia débil, Patches of, Niebla, Muy nuboso
 Viento del SSO
Viento: SSO 31 km/h, Racha: 54 km/h
Temperatura: 15°C
Rocío: 14°C
Humedad: 94%
Barómetro: 1017 hPa
Resumen: Lluvia débil, Patches of, Niebla
Clouds: Muy nuboso
Visibility: 3 km
Cloud details: Few Clouds 61 m
Parcialmente nuboso 335 m
Muy nuboso 579 m
2020/10/24 18:30 LEVX 241830Z 21017G29KT 3000 0800SE -RA BCFG FEW002 SCT011 BKN019 15/14 Q1017 TEMPO 5000